Time;durP1;ratioP1;P1;durP2;ratioP2;P2;SDS_P1;SDS_P2;PMS_P1;PMS_P2;Temp;Humidity;BMP_temperature;BMP_pressure;BME280_temperature;BME280_humidity;BME280_pressure;Samples;Min_cycle;Max_cycle;Signal;HPM_P1;HPM_P2
2021/06/19 00:01:25;;;;;;;19.85;10.55;;;;;;;19.81;78.78;99819.66;5087064;28;20567;-21
2021/06/19 00:03:51;;;;;;;18.90;11.35;;;;;;;19.76;79.13;99833.25;5087225;28;20162;-22
2021/06/19 00:06:16;;;;;;;15.48;10.52;;;;;;;19.98;78.07;99846.25;5086981;28;20035;-22
2021/06/19 00:08:42;;;;;;;18.92;10.55;;;;;;;19.95;77.83;99847.66;5087099;28;20032;-22
2021/06/19 00:11:07;;;;;;;17.45;10.50;;;;;;;19.99;77.89;99848.69;5087413;28;20097;-22
2021/06/19 00:13:33;;;;;;;16.90;10.32;;;;;;;19.83;79.13;99837.22;5087428;28;20574;-21
2021/06/19 00:15:58;;;;;;;13.85;9.82;;;;;;;19.76;79.10;99830.53;5089022;28;20048;-21
2021/06/19 00:18:24;;;;;;;16.75;10.40;;;;;;;19.99;78.55;99832.44;5090834;28;20059;-21
2021/06/19 00:20:50;;;;;;;16.02;10.52;;;;;;;19.98;77.55;99830.84;5091085;28;20031;-21
2021/06/19 00:23:15;;;;;;;15.25;10.27;;;;;;;20.21;76.97;99842.78;5091211;28;20055;-21
2021/06/19 00:25:41;;;;;;;15.70;10.15;;;;;;;20.20;76.75;99846.56;5091180;28;20035;-21
2021/06/19 00:28:06;;;;;;;15.73;10.10;;;;;;;20.18;77.15;99840.63;5090697;28;20032;-21
2021/06/19 00:30:32;;;;;;;16.10;10.52;;;;;;;20.41;75.64;99828.19;5091076;28;20027;-22
2021/06/19 00:32:57;;;;;;;15.68;10.50;;;;;;;20.91;73.88;99837.84;5090952;28;20032;-21
2021/06/19 00:35:23;;;;;;;15.23;10.35;;;;;;;20.42;75.77;99829.00;5091118;28;20031;-21
2021/06/19 00:37:48;;;;;;;16.15;10.70;;;;;;;20.18;76.94;99827.09;5090783;28;20058;-22
2021/06/19 00:40:14;;;;;;;15.23;10.73;;;;;;;19.96;77.85;99830.34;5090208;28;20035;-22
2021/06/19 00:42:40;;;;;;;17.15;11.13;;;;;;;19.76;78.38;99823.22;5090747;28;20024;-22
2021/06/19 00:45:06;;;;;;;15.20;10.43;;;;;;;19.75;78.65;99820.81;5090526;28;20111;-22
2021/06/19 00:47:32;;;;;;;16.10;10.98;;;;;;;19.71;79.12;99819.75;5072593;28;20388;-22
2021/06/19 00:49:57;;;;;;;16.27;10.73;;;;;;;19.94;78.48;99840.66;5090973;28;20570;-22
2021/06/19 00:52:23;;;;;;;18.67;12.07;;;;;;;19.84;78.49;99827.22;5090498;28;20040;-21
2021/06/19 00:54:48;;;;;;;21.17;12.60;;;;;;;19.89;78.75;99835.25;5090486;28;20126;-21
2021/06/19 00:57:14;;;;;;;19.63;14.68;;;;;;;19.90;78.59;99834.19;5090453;28;20032;-21
2021/06/19 00:59:39;;;;;;;25.38;15.45;;;;;;;19.89;78.24;99823.66;5072220;28;20449;-21
2021/06/19 01:02:05;;;;;;;25.15;17.40;;;;;;;19.72;79.31;99845.72;5072170;28;20059;-21
2021/06/19 01:04:30;;;;;;;27.63;18.50;;;;;;;19.82;79.02;99842.94;5090444;28;20020;-21
2021/06/19 01:06:56;;;;;;;29.15;19.33;;;;;;;19.67;78.83;99820.28;5090141;28;20028;-21
2021/06/19 01:09:22;;;;;;;28.75;19.80;;;;;;;19.96;78.19;99838.47;5072109;28;20059;-21
2021/06/19 01:11:48;;;;;;;34.33;20.25;;;;;;;20.28;76.40;99816.13;5090272;28;20039;-21
2021/06/19 01:14:13;;;;;;;23.42;16.30;;;;;;;19.91;77.79;99824.97;5089847;28;20089;-22
2021/06/19 01:16:39;;;;;;;22.95;14.00;;;;;;;19.83;77.79;99833.72;5071754;28;20044;-22
2021/06/19 01:19:05;;;;;;;17.92;13.13;;;;;;;19.71;78.47;99839.50;5055092;28;20056;-22
2021/06/19 01:21:30;;;;;;;16.80;11.27;;;;;;;19.60;79.16;99835.25;5089826;28;20039;-22
2021/06/19 01:23:56;;;;;;;13.50;10.65;;;;;;;19.77;78.28;99832.94;5089957;28;20028;-22
2021/06/19 01:26:26;;;;;;;16.05;10.98;;;;;;;20.06;76.95;99826.69;5089926;28;20024;-22
2021/06/19 01:28:52;;;;;;;17.50;12.40;;;;;;;20.35;76.36;99848.31;5089754;28;20034;-22
2021/06/19 01:31:18;;;;;;;18.33;12.95;;;;;;;20.34;76.25;99854.00;5071920;28;20107;-22
2021/06/19 01:33:45;;;;;;;22.30;13.95;;;;;;;20.19;76.95;99850.38;5090224;28;20106;-22
2021/06/19 01:36:10;;;;;;;19.05;13.30;;;;;;;20.14;76.71;99834.19;5089690;28;20036;-23
2021/06/19 01:38:42;;;;;;;26.50;14.40;;;;;;;20.36;76.24;99857.22;5089911;28;20032;-21
2021/06/19 01:41:29;;;;;;;20.30;14.07;;;;;;;20.33;76.63;99861.34;5089792;28;20089;-21
2021/06/19 01:44:16;;;;;;;25.63;15.18;;;;;;;20.56;75.58;99850.75;5071306;28;20032;-22
2021/06/19 01:46:42;;;;;;;14.40;12.35;;;;;;;20.01;77.40;99851.91;5089431;28;20478;-22
2021/06/19 01:49:08;;;;;;;17.08;11.77;;;;;;;19.59;78.48;99844.44;5089727;28;20048;-23
2021/06/19 01:51:33;;;;;;;21.33;13.48;;;;;;;20.25;76.06;99856.56;5089741;28;20542;-22
2021/06/19 01:53:59;;;;;;;19.92;13.45;;;;;;;20.07;76.64;99850.78;5089473;28;20067;-21
2021/06/19 01:56:24;;;;;;;18.85;12.27;;;;;;;19.76;78.25;99836.75;5089330;28;20101;-21
2021/06/19 01:58:50;;;;;;;21.60;13.93;;;;;;;20.15;77.25;99848.53;5089585;28;20106;-21
2021/06/19 02:01:16;;;;;;;21.45;13.73;;;;;;;20.07;77.09;99837.25;5089281;28;20024;-21
2021/06/19 02:03:42;;;;;;;18.17;12.80;;;;;;;19.74;78.32;99840.84;5089069;28;20024;-21
2021/06/19 02:06:08;;;;;;;17.67;12.85;;;;;;;19.57;78.89;99830.41;5071046;28;20110;-21
2021/06/19 02:08:34;;;;;;;18.92;12.82;;;;;;;19.75;78.03;99832.41;5089140;28;20085;-21
2021/06/19 02:10:59;;;;;;;15.85;11.55;;;;;;;19.98;76.61;99836.28;5089162;28;20098;-21
2021/06/19 02:13:25;;;;;;;14.68;11.27;;;;;;;20.22;75.68;99830.03;5089314;28;20024;-21
2021/06/19 02:15:51;;;;;;;16.38;11.60;;;;;;;20.29;75.16;99833.22;5089041;28;20078;-21
2021/06/19 02:18:16;;;;;;;14.02;11.50;;;;;;;20.29;74.96;99835.91;5088654;28;20063;-22
2021/06/19 02:20:42;;;;;;;14.52;11.05;;;;;;;20.06;75.63;99811.28;5089034;28;20490;-22
2021/06/19 02:23:08;;;;;;;16.77;11.18;;;;;;;20.18;75.76;99823.59;5088964;28;20047;-21
2021/06/19 02:25:33;;;;;;;14.13;10.18;;;;;;;20.00;75.92;99815.13;5088770;28;20020;-22
2021/06/19 02:28:00;;;;;;;16.23;11.32;;;;;;;20.16;75.80;99834.69;5089044;28;20852;-23
2021/06/19 02:30:42;;;;;;;15.10;10.82;;;;;;;19.70;76.90;99801.91;5088726;28;20056;-23
2021/06/19 02:33:07;;;;;;;13.15;10.63;;;;;;;19.70;77.72;99818.94;5088703;28;20036;-21
2021/06/19 02:35:34;;;;;;;16.48;11.23;;;;;;;19.93;76.66;99817.38;5088557;28;20028;-22
2021/06/19 02:38:00;;;;;;;15.20;10.82;;;;;;;20.20;75.24;99826.81;5088085;28;20080;-22
2021/06/19 02:40:25;;;;;;;14.68;10.93;;;;;;;20.20;75.16;99815.97;5088332;28;20028;-22
2021/06/19 02:42:51;;;;;;;15.02;10.95;;;;;;;20.34;74.56;99826.94;5070582;28;20031;-21
2021/06/19 02:45:17;;;;;;;16.20;10.80;;;;;;;20.32;74.15;99835.34;5088518;28;20051;-21
2021/06/19 02:47:47;;;;;;;14.35;10.40;;;;;;;20.36;73.87;99833.66;5088259;28;20027;-22
2021/06/19 02:50:13;;;;;;;14.13;10.93;;;;;;;20.58;73.14;99837.72;5087955;28;20039;-21
2021/06/19 02:52:41;;;;;;;14.98;10.77;;;;;;;20.44;73.24;99827.59;5088303;28;20024;-21
2021/06/19 02:55:11;;;;;;;16.42;11.23;;;;;;;20.01;75.65;99829.47;5088238;28;20028;-21
2021/06/19 02:57:37;;;;;;;14.65;10.32;;;;;;;20.05;75.41;99815.06;5088163;28;20023;-22
2021/06/19 03:00:07;;;;;;;14.80;10.55;;;;;;;20.41;73.82;99830.91;5088094;28;20059;-21
2021/06/19 03:02:32;;;;;;;13.10;9.70;;;;;;;20.33;73.85;99825.28;5087948;28;20047;-21
2021/06/19 03:04:58;;;;;;;12.15;9.65;;;;;;;20.55;72.49;99816.63;5088007;28;20040;-21
2021/06/19 03:07:24;;;;;;;13.45;10.40;;;;;;;20.70;72.13;99818.34;5087906;28;20039;-22
2021/06/19 03:09:49;;;;;;;16.95;10.10;;;;;;;20.44;73.19;99814.06;5088192;28;20032;-23
2021/06/19 03:12:14;;;;;;;14.05;10.27;;;;;;;20.30;73.72;99815.84;5087592;28;20473;-21
2021/06/19 03:14:40;;;;;;;13.90;10.73;;;;;;;20.07;74.56;99821.00;5087954;28;20104;-21
2021/06/19 03:17:05;;;;;;;15.75;11.23;;;;;;;20.15;73.70;99791.69;5087253;28;20039;-22
2021/06/19 03:19:31;;;;;;;12.93;10.15;;;;;;;20.35;73.42;99818.53;5087877;28;20516;-22
2021/06/19 03:22:00;;;;;;;12.68;9.30;;;;;;;19.96;74.16;99789.75;5087719;28;20016;-22
2021/06/19 03:24:26;;;;;;;14.55;10.10;;;;;;;20.32;73.65;99804.75;5087525;28;20038;-21
2021/06/19 03:26:52;;;;;;;13.40;9.77;;;;;;;20.43;73.46;99798.91;5087936;28;20028;-22
2021/06/19 03:29:18;;;;;;;14.73;10.18;;;;;;;20.11;74.54;99806.91;5088023;28;20055;-22
2021/06/19 03:31:43;;;;;;;12.40;9.68;;;;;;;20.18;74.37;99796.50;5087549;28;20033;-22
2021/06/19 03:34:08;;;;;;;14.80;10.18;;;;;;;20.29;73.93;99800.72;5087463;28;20036;-22
2021/06/19 03:36:34;;;;;;;14.55;10.18;;;;;;;20.05;74.25;99785.28;5088111;28;20032;-21
2021/06/19 03:38:59;;;;;;;19.35;10.50;;;;;;;20.13;74.60;99818.25;5087990;28;20036;-21
2021/06/19 03:41:25;;;;;;;15.85;10.48;;;;;;;20.00;75.21;99798.91;5087318;28;20020;-22
2021/06/19 03:43:51;;;;;;;13.10;10.50;;;;;;;20.02;74.96;99804.00;5087607;28;20384;-22
2021/06/19 03:46:16;;;;;;;12.15;9.80;;;;;;;19.90;75.66;99796.31;5069199;28;20085;-21
2021/06/19 03:48:42;;;;;;;15.45;10.77;;;;;;;19.70;76.70;99801.91;5087191;28;20042;-22
2021/06/19 03:51:07;;;;;;;17.33;11.02;;;;;;;19.62;76.98;99801.41;5086620;28;20036;-21
2021/06/19 03:53:32;;;;;;;13.50;10.15;;;;;;;19.72;76.74;99788.91;5087331;28;20536;-22
2021/06/19 03:55:58;;;;;;;15.65;10.52;;;;;;;19.98;76.10;99794.84;5087210;28;20028;-21
2021/06/19 03:58:23;;;;;;;13.68;9.15;;;;;;;19.90;75.88;99798.19;5069267;28;20043;-22
2021/06/19 04:00:49;;;;;;;10.75;8.05;;;;;;;19.77;76.57;99795.06;5087524;28;20032;-21
2021/06/19 04:03:14;;;;;;;11.50;8.85;;;;;;;19.58;77.53;99772.53;5087048;28;20039;-21
2021/06/19 04:05:40;;;;;;;13.63;8.05;;;;;;;19.58;77.38;99780.63;5087283;28;20020;-22
2021/06/19 04:08:05;;;;;;;11.27;8.25;;;;;;;19.39;77.66;99764.28;5087052;28;20055;-23
2021/06/19 04:10:31;;;;;;;18.90;10.07;;;;;;;19.54;78.29;99783.09;5087569;28;20024;-21
2021/06/19 04:12:56;;;;;;;15.65;9.25;;;;;;;19.56;78.19;99790.94;5087394;28;20032;-21
2021/06/19 04:15:22;;;;;;;13.73;8.65;;;;;;;19.58;77.39;99772.53;5087305;28;20081;-21
2021/06/19 04:17:47;;;;;;;12.18;9.95;;;;;;;19.90;77.34;99790.88;5086844;28;20056;-22
2021/06/19 04:20:14;;;;;;;16.58;10.00;;;;;;;19.83;77.35;99776.88;5086976;28;20407;-22
2021/06/19 04:22:40;;;;;;;13.88;10.20;;;;;;;19.93;77.44;99774.06;5087038;28;20032;-21
2021/06/19 04:25:06;;;;;;;12.85;9.88;;;;;;;20.11;76.41;99786.03;5068702;28;20028;-22
2021/06/19 04:27:40;;;;;;;14.75;9.30;;;;;;;19.77;77.76;99769.91;5068889;28;20052;-22
2021/06/19 04:30:07;;;;;;;11.38;8.82;;;;;;;19.82;77.09;99783.41;5087131;28;20028;-22
2021/06/19 04:32:32;;;;;;;17.63;10.38;;;;;;;20.13;76.47;99785.75;5087398;28;20100;-21
2021/06/19 04:34:58;;;;;;;12.20;9.05;;;;;;;20.07;76.41;99793.94;5086969;28;20028;-21
2021/06/19 04:37:26;;;;;;;13.07;9.15;;;;;;;20.24;75.96;99800.78;5068876;28;20032;-21
2021/06/19 04:42:40;;;;;;;12.30;9.15;;;;;;;20.60;75.06;99789.50;5086908;28;20494;-21
2021/06/19 04:45:07;;;;;;;11.77;9.30;;;;;;;20.89;74.64;99802.09;5086850;28;20511;-21
2021/06/19 04:47:33;;;;;;;13.20;8.48;;;;;;;20.79;74.33;99803.06;5086815;28;20454;-22
2021/06/19 04:49:59;;;;;;;15.48;9.40;;;;;;;21.07;73.86;99810.22;5086783;28;20028;-22
2021/06/19 04:52:24;;;;;;;11.57;7.55;;;;;;;20.92;72.83;99802.31;5086411;28;20050;-21
2021/06/19 04:54:50;;;;;;;12.02;8.40;;;;;;;20.86;74.55;99825.16;5086828;28;20089;-22
2021/06/19 04:57:16;;;;;;;13.90;7.95;;;;;;;21.24;73.31;99825.94;5086756;28;20024;-22
2021/06/19 04:59:41;;;;;;;10.23;7.80;;;;;;;21.04;72.80;99801.84;5068656;28;20464;-22
2021/06/19 05:02:07;;;;;;;10.38;7.97;;;;;;;21.29;72.85;99816.94;5088668;28;20024;-21
2021/06/19 05:04:32;;;;;;;11.65;7.38;;;;;;;21.29;72.97;99833.22;5090563;28;20065;-21
2021/06/19 05:06:58;;;;;;;12.60;7.65;;;;;;;21.37;72.48;99834.41;5090648;28;20028;-22
2021/06/19 05:09:23;;;;;;;12.77;7.28;;;;;;;21.27;72.31;99819.94;5090211;28;20031;-22
2021/06/19 05:11:49;;;;;;;12.98;8.00;;;;;;;21.25;72.75;99830.28;5090167;28;20036;-22
2021/06/19 05:14:14;;;;;;;12.02;7.90;;;;;;;21.42;73.46;99820.78;5090036;28;20036;-23
2021/06/19 05:16:40;;;;;;;12.10;6.97;;;;;;;21.52;72.02;99814.41;5090413;28;20040;-22
2021/06/19 05:19:05;;;;;;;11.25;7.40;;;;;;;21.32;73.00;99824.47;5090326;28;20052;-21
2021/06/19 05:21:31;;;;;;;11.02;7.88;;;;;;;20.84;73.26;99809.22;5089952;28;20426;-21
2021/06/19 05:23:56;;;;;;;11.00;7.55;;;;;;;21.21;73.87;99831.97;5071848;28;20036;-22
2021/06/19 05:26:22;;;;;;;12.30;8.20;;;;;;;21.42;73.22;99823.50;5089622;28;20073;-22
2021/06/19 05:28:47;;;;;;;11.10;7.93;;;;;;;21.46;72.52;99828.06;5090095;28;20047;-21
2021/06/19 05:31:13;;;;;;;11.75;8.55;;;;;;;21.41;72.56;99827.31;5090060;28;20415;-22
2021/06/19 05:33:38;;;;;;;13.98;8.32;;;;;;;21.42;72.58;99818.06;5089810;28;20028;-22
2021/06/19 05:36:04;;;;;;;13.18;8.35;;;;;;;21.27;72.90;99811.81;5071465;28;20043;-22
2021/06/19 05:38:29;;;;;;;12.55;8.75;;;;;;;21.34;73.14;99835.81;5089825;28;20035;-21
2021/06/19 05:40:55;;;;;;;11.93;8.00;;;;;;;21.35;72.29;99823.88;5089696;28;20024;-22
2021/06/19 05:43:20;;;;;;;12.55;7.30;;;;;;;21.22;73.12;99833.56;5089833;28;20047;-22
2021/06/19 05:45:46;;;;;;;10.93;7.85;;;;;;;21.11;73.66;99829.41;5089597;28;20043;-22
2021/06/19 05:48:11;;;;;;;14.32;8.38;;;;;;;21.31;72.62;99828.28;5089528;28;20039;-23
2021/06/19 05:50:37;;;;;;;12.13;8.50;;;;;;;21.45;72.93;99833.78;5090347;28;20032;-22
2021/06/19 05:53:02;;;;;;;14.48;8.13;;;;;;;21.40;72.55;99831.13;5089782;28;20028;-21
2021/06/19 05:55:28;;;;;;;11.85;8.13;;;;;;;21.27;72.76;99830.78;5089449;28;20039;-21
2021/06/19 05:57:53;;;;;;;12.82;7.75;;;;;;;21.28;71.99;99821.53;5089559;28;20086;-21
2021/06/19 06:00:19;;;;;;;12.65;8.68;;;;;;;21.25;72.82;99824.06;5089056;28;20219;-21
2021/06/19 06:02:44;;;;;;;14.45;8.32;;;;;;;21.00;74.14;99819.81;5071384;28;20559;-21
2021/06/19 06:05:11;;;;;;;12.85;9.35;;;;;;;21.41;73.05;99827.31;5089339;28;20059;-22
2021/06/19 06:07:36;;;;;;;17.13;9.23;;;;;;;21.55;72.97;99825.47;5089347;28;20064;-21
2021/06/19 06:10:03;;;;;;;11.10;8.43;;;;;;;21.69;72.11;99830.13;5070927;28;20035;-22
2021/06/19 06:12:28;;;;;;;13.15;8.70;;;;;;;21.66;72.11;99835.03;5088449;28;20032;-22
2021/06/19 06:14:54;;;;;;;11.88;8.27;;;;;;;21.75;71.80;99831.66;5087601;28;20039;-22
2021/06/19 06:17:19;;;;;;;13.07;8.10;;;;;;;21.62;72.00;99815.03;5087127;28;20055;-21
2021/06/19 06:19:45;;;;;;;11.30;7.53;;;;;;;21.60;72.83;99827.31;5088927;28;20063;-21
2021/06/19 06:22:10;;;;;;;10.05;7.80;;;;;;;21.77;71.00;99832.16;5088726;28;20128;-22
2021/06/19 06:24:36;;;;;;;12.75;8.02;;;;;;;21.73;71.21;99839.28;5088866;28;20035;-22
2021/06/19 06:27:02;;;;;;;15.30;8.70;;;;;;;21.74;71.89;99835.44;5089311;28;20032;-23
2021/06/19 06:29:27;;;;;;;12.55;8.60;;;;;;;21.46;72.83;99810.97;5071228;28;20020;-22
2021/06/19 06:31:53;;;;;;;14.93;8.68;;;;;;;21.59;72.40;99820.25;5088990;28;20717;-21
2021/06/19 06:34:19;;;;;;;12.15;9.35;;;;;;;21.75;72.01;99820.78;5088582;28;20020;-21
2021/06/19 06:36:44;;;;;;;12.55;9.45;;;;;;;21.39;73.13;99819.47;5088938;28;20040;-21
2021/06/19 06:39:10;;;;;;;13.73;9.57;;;;;;;21.43;73.94;99819.69;5088776;28;20035;-22
2021/06/19 06:41:35;;;;;;;12.25;9.35;;;;;;;21.56;72.54;99818.94;5088510;28;20101;-22
2021/06/19 06:44:01;;;;;;;12.95;9.68;;;;;;;21.68;72.94;99813.03;5088629;28;20036;-23
2021/06/19 06:46:26;;;;;;;10.52;9.43;;;;;;;21.77;72.40;99805.00;5088675;28;20128;-21
2021/06/19 06:48:52;;;;;;;14.60;9.68;;;;;;;21.66;73.09;99826.91;5070167;28;20028;-23
2021/06/19 06:51:17;;;;;;;12.73;10.07;;;;;;;21.68;72.98;99821.19;5088554;28;20461;-22
2021/06/19 06:53:43;;;;;;;15.55;10.50;;;;;;;21.53;73.76;99813.31;5088349;28;20032;-22
2021/06/19 06:56:08;;;;;;;14.57;10.77;;;;;;;21.94;73.31;99818.78;5088461;28;20548;-23
2021/06/19 06:58:34;;;;;;;12.82;10.43;;;;;;;21.91;73.27;99810.47;5070300;28;20028;-22
2021/06/19 07:01:00;;;;;;;12.77;10.23;;;;;;;21.87;72.95;99807.53;5088220;28;20248;-22
2021/06/19 07:03:25;;;;;;;13.88;10.48;;;;;;;21.61;73.22;99799.06;5088346;28;20381;-22
2021/06/19 07:05:51;;;;;;;11.55;9.45;;;;;;;21.79;72.29;99816.38;5088935;28;20805;-21
2021/06/19 07:08:17;;;;;;;11.75;9.40;;;;;;;22.01;72.06;99821.13;5087926;28;20072;-21
2021/06/19 07:10:42;;;;;;;14.02;10.10;;;;;;;22.22;71.13;99814.16;5088034;28;20032;-22
2021/06/19 07:13:07;;;;;;;14.05;10.15;;;;;;;22.20;71.15;99823.72;5088643;28;20035;-21
2021/06/19 07:15:33;;;;;;;14.35;10.50;;;;;;;22.10;71.58;99799.50;5088166;28;20040;-21
2021/06/19 07:17:58;;;;;;;13.68;10.70;;;;;;;22.50;70.67;99818.81;5087799;28;20052;-21
2021/06/19 07:20:24;;;;;;;11.23;9.43;;;;;;;22.36;69.94;99799.81;5087501;28;20105;-22
2021/06/19 07:22:49;;;;;;;13.73;10.73;;;;;;;22.61;69.56;99821.00;5087896;28;20052;-21
2021/06/19 07:25:15;;;;;;;15.95;11.00;;;;;;;22.51;70.39;99809.53;5087297;28;20128;-21
2021/06/19 07:27:40;;;;;;;14.70;10.57;;;;;;;22.71;69.43;99814.53;5087975;28;20039;-22
2021/06/19 07:30:07;;;;;;;16.15;10.40;;;;;;;22.80;69.06;99803.72;5087579;28;20028;-22
2021/06/19 07:32:34;;;;;;;14.83;10.07;;;;;;;22.98;68.83;99800.03;5069690;28;20040;-22
2021/06/19 07:34:59;;;;;;;14.00;10.40;;;;;;;22.94;69.46;99811.84;5087593;28;20168;-22
2021/06/19 07:37:25;;;;;;;10.63;9.00;;;;;;;22.74;69.30;99797.63;5087721;28;20042;-22
2021/06/19 07:39:53;;;;;;;16.98;10.05;;;;;;;22.76;68.90;99810.88;5087695;28;20097;-23
2021/06/19 07:42:19;;;;;;;;;;;;;;;22.92;69.70;99817.59;5087735;28;20032;-22
2021/06/19 07:44:44;;;;;;;13.75;9.52;;;;;;;22.93;69.53;99816.50;5087779;28;19916;-23
2021/06/19 07:47:10;;;;;;;14.52;9.55;;;;;;;22.82;68.52;99829.50;5088215;28;20783;-22
2021/06/19 07:49:35;;;;;;;11.50;9.32;;;;;;;22.78;68.79;99825.81;5087743;28;20020;-23
2021/06/19 07:52:03;;;;;;;12.30;9.05;;;;;;;22.80;69.41;99828.19;5087431;28;20415;-22
2021/06/19 07:54:28;;;;;;;13.88;9.98;;;;;;;22.63;69.65;99828.84;5087543;28;20035;-21
2021/06/19 07:56:54;;;;;;;12.48;9.23;;;;;;;22.61;69.43;99825.63;5087645;28;20168;-22
2021/06/19 07:59:19;;;;;;;14.55;10.07;;;;;;;23.01;69.68;99817.69;5087303;28;20020;-22
2021/06/19 08:01:45;;;;;;;11.43;9.18;;;;;;;23.35;67.82;99827.22;5087220;28;20073;-21
2021/06/19 08:04:10;;;;;;;12.68;8.68;;;;;;;23.66;67.25;99810.94;5087323;28;20032;-21
2021/06/19 08:06:36;;;;;;;13.27;9.88;;;;;;;23.80;66.44;99806.22;5087253;28;20065;-22
2021/06/19 08:09:01;;;;;;;9.90;8.13;;;;;;;23.74;66.24;99806.63;5087143;28;20035;-22
2021/06/19 08:11:26;;;;;;;10.13;8.35;;;;;;;23.64;66.00;99811.22;5087376;28;20032;-22
2021/06/19 08:13:53;;;;;;;9.88;8.43;;;;;;;23.77;65.43;99803.31;5087316;28;20028;-22
2021/06/19 08:16:19;;;;;;;10.45;8.48;;;;;;;24.08;64.62;99818.81;5087009;28;20032;-22
2021/06/19 08:18:45;;;;;;;11.20;8.55;;;;;;;23.98;65.08;99817.16;5086783;28;20052;-22
2021/06/19 08:21:11;;;;;;;13.00;9.65;;;;;;;23.95;64.24;99823.25;5087317;28;20083;-22
2021/06/19 08:23:36;;;;;;;13.52;10.60;;;;;;;23.84;65.59;99811.81;5087157;28;20419;-22
2021/06/19 08:26:02;;;;;;;12.45;8.45;;;;;;;23.61;65.30;99822.72;5087328;28;20032;-24
2021/06/19 08:28:27;;;;;;;11.57;8.68;;;;;;;24.01;64.95;99822.81;5087484;28;20032;-22
2021/06/19 08:30:53;;;;;;;11.65;8.38;;;;;;;24.11;64.10;99804.56;5087132;28;20030;-21
2021/06/19 08:33:18;;;;;;;8.75;7.80;;;;;;;23.95;63.03;99824.06;5087598;28;20051;-21
2021/06/19 08:35:43;;;;;;;11.18;8.80;;;;;;;24.24;63.81;99820.00;5087093;28;20024;-22
2021/06/19 08:38:09;;;;;;;10.13;8.02;;;;;;;23.88;64.20;99809.28;5090872;28;20043;-22
2021/06/19 08:40:37;;;;;;;10.93;8.05;;;;;;;24.46;62.54;99822.59;5091210;28;20031;-22
2021/06/19 08:43:03;;;;;;;11.75;6.90;;;;;;;24.70;60.81;99815.91;5091120;28;20597;-22
2021/06/19 08:45:33;;;;;;;9.00;6.32;;;;;;;24.83;61.46;99814.19;5090884;28;20032;-22
2021/06/19 08:48:01;;;;;;;8.65;6.30;;;;;;;24.42;64.05;99820.84;5073423;28;20028;-21
2021/06/19 08:50:27;;;;;;;10.80;6.65;;;;;;;24.52;62.13;99817.03;5090931;28;20035;-22
2021/06/19 08:52:53;;;;;;;9.70;6.10;;;;;;;24.73;63.50;99823.47;5072617;28;20415;-22
2021/06/19 08:55:18;;;;;;;8.52;5.63;;;;;;;25.37;61.50;99825.56;5090823;28;20395;-21
2021/06/19 08:57:44;;;;;;;11.80;7.30;;;;;;;25.81;59.25;99803.59;5090699;28;20072;-21
2021/06/19 09:00:10;;;;;;;6.50;4.72;;;;;;;26.03;58.09;99822.50;5090258;28;20093;-22
2021/06/19 09:02:36;;;;;;;10.27;5.80;;;;;;;25.82;58.29;99810.66;5090574;28;20494;-21
2021/06/19 09:05:06;;;;;;;5.85;4.43;;;;;;;26.32;58.23;99820.91;5090478;28;20024;-21
2021/06/19 09:07:44;;;;;;;6.10;4.13;;;;;;;26.52;55.43;99821.25;5090651;28;20063;-21
2021/06/19 09:10:15;;;;;;;;;;;;;;;26.57;54.82;99818.34;5090687;28;20020;-22
2021/06/19 09:13:15;;;;;;;5.07;3.15;;;;;;;26.66;55.21;99810.88;5090303;28;19982;-22
2021/06/19 09:15:45;;;;;;;5.38;3.10;;;;;;;26.92;52.27;99824.38;5065219;28;20052;-22
2021/06/19 09:18:19;;;;;;;4.00;3.35;;;;;;;26.77;55.14;99820.31;5089927;28;20109;-23
2021/06/19 09:20:55;;;;;;;5.30;3.00;;;;;;;25.85;53.51;99790.91;5090394;28;20039;-22
2021/06/19 09:23:36;;;;;;;4.18;2.60;;;;;;;25.99;53.89;99805.16;5090396;28;20042;-21
2021/06/19 09:26:11;;;;;;;4.75;2.92;;;;;;;26.00;54.19;99809.47;5072322;28;20039;-22
2021/06/19 09:29:02;;;;;;;4.80;2.53;;;;;;;26.29;52.63;99807.09;5072215;28;20031;-21
2021/06/19 09:31:30;;;;;;;3.97;2.70;;;;;;;26.88;53.98;99811.69;5090104;28;20032;-22
2021/06/19 09:34:13;;;;;;;12.60;8.52;;;;;;;27.01;50.80;99805.13;5090164;28;20103;-23
2021/06/19 09:36:42;;;;;;;6.90;2.63;;;;;;;27.13;51.05;99799.72;5090006;28;20465;-22
2021/06/19 09:39:09;;;;;;;4.28;2.28;;;;;;;26.75;51.34;99800.69;5090063;28;20024;-22
2021/06/19 09:41:36;;;;;;;3.50;2.10;;;;;;;27.15;50.29;99783.75;5089746;28;20050;-22
2021/06/19 09:44:01;;;;;;;4.47;2.13;;;;;;;27.49;49.93;99795.53;5089346;28;20035;-23
2021/06/19 09:46:26;;;;;;;5.15;2.35;;;;;;;27.08;48.35;99799.94;5071575;28;20039;-22
2021/06/19 09:48:52;;;;;;;1.80;1.60;;;;;;;27.22;49.33;99800.44;5089683;28;20028;-21
2021/06/19 09:51:19;;;;;;;4.47;2.47;;;;;;;26.88;50.28;99800.75;5071728;28;20032;-22
2021/06/19 09:53:46;;;;;;;;;;;;;;;26.56;49.39;99795.66;5090369;28;20051;-21
2021/06/19 09:56:12;;;;;;;2.78;2.10;;;;;;;26.35;48.65;99787.44;5089358;28;19912;-22
2021/06/19 09:58:41;;;;;;;2.63;2.00;;;;;;;26.38;48.59;99794.97;5089437;28;20063;-22
2021/06/19 10:01:07;;;;;;;2.92;1.98;;;;;;;26.48;48.56;99776.56;5089490;28;20063;-21
2021/06/19 10:03:52;;;;;;;3.75;1.60;;;;;;;26.34;48.42;99787.78;5071317;28;20028;-22
2021/06/19 10:06:17;;;;;;;2.45;1.58;;;;;;;26.44;49.63;99792.84;5089154;28;20032;-22
2021/06/19 10:08:46;;;;;;;1.70;1.50;;;;;;;25.83;49.97;99780.28;5089392;28;20032;-22
2021/06/19 10:11:12;;;;;;;3.10;1.55;;;;;;;25.83;50.77;99771.31;5089227;28;20028;-22
2021/06/19 10:13:37;;;;;;;2.45;1.40;;;;;;;26.43;48.50;99777.56;5089455;28;20499;-22
2021/06/19 10:16:03;;;;;;;3.25;1.77;;;;;;;25.96;47.15;99780.44;5070694;28;20420;-22
2021/06/19 10:18:30;;;;;;;3.00;1.80;;;;;;;26.31;49.96;99767.34;5054305;28;20058;-22
2021/06/19 10:20:56;;;;;;;3.95;2.15;;;;;;;26.44;48.55;99769.03;5089127;28;20028;-22
2021/06/19 10:23:21;;;;;;;3.53;1.70;;;;;;;26.65;49.36;99773.75;5089208;28;20177;-22
2021/06/19 10:25:48;;;;;;;4.78;1.50;;;;;;;26.35;49.36;99772.97;5089011;28;20028;-22
2021/06/19 10:28:15;;;;;;;3.88;1.65;;;;;;;26.33;49.42;99772.50;5070975;28;20040;-22
2021/06/19 10:30:42;;;;;;;7.25;1.80;;;;;;;26.41;47.70;99771.63;5054150;28;20121;-22
2021/06/19 10:33:27;;;;;;;2.00;1.38;;;;;;;26.66;45.80;99767.13;5071235;28;20051;-21
2021/06/19 10:35:53;;;;;;;2.42;1.60;;;;;;;27.20;46.58;99764.38;5089086;28;20081;-23
2021/06/19 10:38:19;;;;;;;4.93;1.50;;;;;;;26.81;46.11;99754.78;5089021;28;20035;-22
2021/06/19 10:41:00;;;;;;;14.38;2.53;;;;;;;26.94;48.09;99745.47;5088828;28;20032;-22
2021/06/19 10:43:27;;;;;;;2.30;1.50;;;;;;;27.58;44.29;99757.88;5088931;28;20039;-22
2021/06/19 10:45:53;;;;;;;2.03;1.40;;;;;;;28.24;42.68;99739.63;5088766;28;20034;-22
2021/06/19 10:48:19;;;;;;;3.42;1.60;;;;;;;29.17;40.16;99758.75;5088562;28;20096;-22
2021/06/19 10:50:49;;;;;;;4.03;1.67;;;;;;;29.10;41.13;99755.00;5088456;28;20027;-23
2021/06/19 10:53:16;;;;;;;11.57;6.75;;;;;;;28.60;40.69;99749.69;5070331;28;20733;-21
2021/06/19 10:55:44;;;;;;;6.47;2.00;;;;;;;28.85;42.42;99747.69;5088220;28;20445;-22
2021/06/19 10:58:33;;;;;;;2.60;1.90;;;;;;;28.49;43.96;99751.31;5088524;28;20115;-22
2021/06/19 11:00:59;;;;;;;2.08;1.70;;;;;;;28.77;41.71;99732.16;5088118;28;20107;-22
2021/06/19 11:03:41;;;;;;;2.63;1.60;;;;;;;28.76;41.50;99733.31;5088480;28;20055;-21
2021/06/19 11:06:24;;;;;;;4.07;1.83;;;;;;;28.94;42.10;99738.50;5087864;28;20028;-22
2021/06/19 11:08:59;;;;;;;2.38;1.70;;;;;;;29.10;39.94;99747.56;5088204;28;20123;-23
2021/06/19 11:12:09;;;;;;;2.95;1.80;;;;;;;28.60;44.28;99746.97;5088043;28;20024;-22
2021/06/19 11:14:44;;;;;;;3.00;1.90;;;;;;;29.10;40.71;99742.06;5088184;28;20059;-21
2021/06/19 11:17:21;;;;;;;2.97;1.70;;;;;;;29.46;40.90;99740.25;5088097;28;20047;-21
2021/06/19 11:19:52;;;;;;;;;;;;;;;29.65;38.97;99740.38;5088704;28;20088;-21
2021/06/19 11:22:32;;;;;;;2.75;1.70;;;;;;;29.64;40.51;99733.25;5087743;28;19912;-21
2021/06/19 11:25:28;;;;;;;3.35;1.70;;;;;;;29.98;39.96;99730.94;5087852;28;20031;-22
2021/06/19 11:27:56;;;;;;;1.58;1.40;;;;;;;30.38;38.68;99715.31;5071001;28;20039;-22